Time;durP1;ratioP1;P1;durP2;ratioP2;P2;SDS_P1;SDS_P2;PMS_P1;PMS_P2;Temp;Humidity;BMP_temperature;BMP_pressure;BME280_temperature;BME280_humidity;BME280_pressure;Samples;Min_cycle;Max_cycle;Signal;HPM_P1;HPM_P2
2022/09/17 00:00:11;;;;;;;13.13;3.40;;;;;;;12.81;100.00;100913.78;6119401;23;20221;-80
2022/09/17 00:02:37;;;;;;;9.83;2.67;;;;;;;12.84;100.00;100920.59;6119793;23;20204;-81
2022/09/17 00:05:03;;;;;;;10.90;2.40;;;;;;;12.82;100.00;100909.25;6121304;23;20153;-82
2022/09/17 00:07:28;;;;;;;15.87;2.87;;;;;;;12.69;100.00;100915.47;6113421;23;20157;-83
2022/09/17 00:09:54;;;;;;;10.77;2.67;;;;;;;12.98;100.00;100913.31;6115456;23;20900;-86
2022/09/17 00:12:19;;;;;;;9.37;2.20;;;;;;;12.72;100.00;100861.22;6118650;23;20164;-84
2022/09/17 00:14:44;;;;;;;10.37;2.50;;;;;;;12.82;100.00;100903.84;6119970;23;20524;-83
2022/09/17 00:17:10;;;;;;;6.30;2.27;;;;;;;12.76;100.00;100880.50;6121691;23;20160;-85
2022/09/17 00:19:35;;;;;;;7.63;2.20;;;;;;;12.91;100.00;100907.16;6120775;23;20374;-81
2022/09/17 00:22:00;;;;;;;16.60;3.00;;;;;;;12.80;100.00;100895.16;6119153;23;20346;-82
2022/09/17 00:24:26;;;;;;;14.93;2.93;;;;;;;12.60;100.00;100846.78;6094356;23;20503;-82
2022/09/17 00:26:52;;;;;;;8.80;2.20;;;;;;;12.92;100.00;100893.44;6120553;23;20161;-83
2022/09/17 00:29:18;;;;;;;9.87;2.80;;;;;;;13.04;100.00;100910.59;6119872;23;20515;-85
2022/09/17 00:31:43;;;;;;;12.80;2.83;;;;;;;12.77;100.00;100864.09;6120969;23;20388;-82
2022/09/17 00:34:09;;;;;;;8.70;2.30;;;;;;;13.06;100.00;100899.63;6120929;23;20157;-81
2022/09/17 00:36:36;;;;;;;7.27;2.20;;;;;;;12.99;100.00;100877.25;6120959;23;20154;-86
2022/09/17 00:39:03;;;;;;;8.97;2.30;;;;;;;13.10;100.00;100882.84;6120188;23;20185;-80
2022/09/17 00:41:31;;;;;;;8.67;2.40;;;;;;;13.32;100.00;100907.59;6120880;23;20385;-80
2022/09/17 00:44:39;;;;;;;6.60;1.87;;;;;;;13.00;100.00;100884.31;6120143;23;20382;-80
2022/09/17 00:47:07;;;;;;;14.83;2.90;;;;;;;13.09;100.00;100891.09;6067304;23;20398;-80
2022/09/17 00:49:33;;;;;;;8.70;2.20;;;;;;;13.17;100.00;100906.22;6120129;23;20401;-80
2022/09/17 00:52:05;;;;;;;12.67;2.80;;;;;;;13.31;100.00;100914.03;6120360;23;20374;-82
2022/09/17 00:54:32;;;;;;;7.93;2.17;;;;;;;13.16;100.00;100907.22;6120430;23;20644;-83
2022/09/17 00:56:58;;;;;;;6.53;2.03;;;;;;;13.31;100.00;100915.91;6119996;23;20449;-85
2022/09/17 00:59:24;;;;;;;9.40;2.67;;;;;;;13.09;100.00;100912.66;6118758;23;20806;-82
2022/09/17 01:01:50;;;;;;;8.90;2.53;;;;;;;13.07;100.00;100930.88;6119902;23;20158;-77
2022/09/17 01:04:21;;;;;;;5.60;1.77;;;;;;;12.81;100.00;100883.34;6119424;23;21076;-87
2022/09/17 01:07:20;;;;;;;10.07;2.00;;;;;;;12.38;100.00;100873.09;6093281;23;20176;-76
2022/09/17 01:10:10;;;;;;;8.20;2.17;;;;;;;12.39;100.00;100932.09;6117278;23;20358;-76
2022/09/17 01:12:39;;;;;;;10.03;2.30;;;;;;;12.34;100.00;100941.81;6091444;23;20385;-77
2022/09/17 01:15:07;;;;;;;8.80;2.57;;;;;;;12.49;100.00;100944.28;6117577;23;20746;-77
2022/09/17 01:17:32;;;;;;;12.23;2.83;;;;;;;12.50;100.00;100951.31;6116814;23;20382;-80
2022/09/17 01:20:33;;;;;;;13.27;3.13;;;;;;;12.49;100.00;100944.28;6117744;23;20385;-85
2022/09/17 01:23:09;;;;;;;15.37;2.87;;;;;;;12.53;100.00;100945.53;6116374;23;20162;-81
2022/09/17 01:26:04;;;;;;;12.10;3.00;;;;;;;12.35;100.00;100928.16;6117870;23;20366;-77
2022/09/17 01:28:39;;;;;;;12.03;3.40;;;;;;;12.39;100.00;100966.22;6093217;23;20774;-80
2022/09/17 01:31:35;;;;;;;12.87;2.90;;;;;;;11.77;100.00;100868.75;6117314;23;20876;-82
2022/09/17 01:34:23;;;;;;;12.90;1.77;;;;;;;11.69;100.00;100912.81;6118143;23;20365;-77
2022/09/17 01:37:10;;;;;;;3.93;1.20;;;;;;;11.91;100.00;100986.03;6118441;23;20397;-76
2022/09/17 01:39:51;;;;;;;5.83;1.50;;;;;;;12.15;100.00;100964.97;6118391;23;20441;-80
2022/09/17 01:42:38;;;;;;;4.80;1.30;;;;;;;12.02;100.00;100940.78;6117123;23;20370;-81
2022/09/17 01:45:10;;;;;;;8.93;1.30;;;;;;;12.04;100.00;100965.59;6116663;23;20493;-78
2022/09/17 01:47:41;;;;;;;5.27;1.50;;;;;;;11.37;100.00;100852.63;6120177;23;20456;-82
2022/09/17 01:50:19;;;;;;;8.07;1.87;;;;;;;11.82;100.00;100914.66;6094681;23;20727;-82
2022/09/17 01:52:48;;;;;;;7.53;1.90;;;;;;;11.73;100.00;100872.91;6118110;23;20424;-82
2022/09/17 01:55:17;;;;;;;11.03;2.07;;;;;;;11.86;100.00;100902.53;6118340;23;20468;-82
2022/09/17 01:58:05;;;;;;;7.07;1.60;;;;;;;12.16;100.00;100956.72;6114665;23;20440;-80
2022/09/17 02:00:31;;;;;;;10.23;2.13;;;;;;;11.54;100.00;100863.78;6113463;23;20362;-80
2022/09/17 02:03:10;;;;;;;12.67;2.63;;;;;;;11.74;100.00;100917.53;6114100;23;20778;-80
2022/09/17 02:05:45;;;;;;;10.20;2.20;;;;;;;11.39;100.00;100857.78;6090083;23;20198;-81
2022/09/17 02:08:17;;;;;;;11.60;2.33;;;;;;;11.40;100.00;100867.47;6091705;23;20389;-82
2022/09/17 02:11:01;;;;;;;9.13;2.53;;;;;;;12.02;100.00;100952.34;6121263;23;20700;-83
2022/09/17 02:13:42;;;;;;;7.20;2.10;;;;;;;12.09;100.00;100930.84;6119671;23;20457;-82
2022/09/17 02:16:14;;;;;;;8.03;2.40;;;;;;;12.05;100.00;100916.16;6093887;23;20446;-79
2022/09/17 02:18:49;;;;;;;9.87;2.77;;;;;;;11.42;100.00;100823.28;6119122;23;20432;-79
2022/09/17 02:21:45;;;;;;;9.13;2.10;;;;;;;12.35;100.00;100949.69;6121318;23;20763;-88
2022/09/17 02:24:17;;;;;;;7.67;1.73;;;;;;;12.32;100.00;100952.75;6120502;23;20707;-78
2022/09/17 02:26:53;;;;;;;9.53;2.00;;;;;;;12.15;100.00;100928.19;6095695;23;20859;-81
2022/09/17 02:29:35;;;;;;;8.40;2.57;;;;;;;11.68;100.00;100845.81;6095293;23;20405;-83
2022/09/17 02:32:02;;;;;;;5.70;2.10;;;;;;;11.82;100.00;100878.91;6119204;23;20388;-80
2022/09/17 02:34:28;;;;;;;7.00;1.73;;;;;;;11.51;100.00;100808.63;6093993;23;20426;-81
2022/09/17 02:36:55;;;;;;;7.43;2.00;;;;;;;11.74;100.00;100847.69;6120485;23;20393;-81
2022/09/17 02:39:20;;;;;;;5.17;2.10;;;;;;;11.67;100.00;100860.28;6094161;23;20432;-82
2022/09/17 02:42:04;;;;;;;7.00;1.90;;;;;;;12.14;100.00;100948.00;6119778;23;20385;-83
2022/09/17 02:44:44;;;;;;;9.00;2.50;;;;;;;12.32;100.00;100951.94;6121028;23;20414;-82
2022/09/17 02:47:28;;;;;;;6.87;2.30;;;;;;;12.12;100.00;100950.09;6122534;23;20448;-80
2022/09/17 02:50:13;;;;;;;10.00;2.30;;;;;;;12.16;100.00;100947.81;6096490;23;20386;-84
2022/09/17 02:52:56;;;;;;;10.40;2.33;;;;;;;12.15;100.00;100940.75;6096750;23;20392;-82
2022/09/17 02:55:51;;;;;;;9.77;2.90;;;;;;;12.42;100.00;100930.84;6123866;23;20369;-86
2022/09/17 02:58:25;;;;;;;7.23;2.60;;;;;;;11.82;100.00;100838.59;6122236;23;20433;-79
2022/09/17 03:00:52;;;;;;;10.50;2.60;;;;;;;11.89;100.00;100864.47;6096791;23;20388;-80
2022/09/17 03:03:30;;;;;;;6.90;1.93;;;;;;;12.38;100.00;100917.00;6122650;23;20457;-82
2022/09/17 03:05:56;;;;;;;7.90;2.10;;;;;;;12.48;100.00;100918.44;6122500;23;20369;-82
2022/09/17 03:08:39;;;;;;;8.07;2.30;;;;;;;12.41;100.00;100903.13;6122446;23;20723;-79
2022/09/17 03:11:07;;;;;;;9.43;2.50;;;;;;;12.54;100.00;100933.72;6122760;23;20633;-78
2022/09/17 03:13:34;;;;;;;4.63;1.70;;;;;;;12.54;100.00;100939.94;6120884;23;20373;-78
2022/09/17 03:16:04;;;;;;;6.50;1.87;;;;;;;12.20;100.00;100879.13;6121780;23;20374;-77
2022/09/17 03:18:29;;;;;;;8.10;2.60;;;;;;;12.55;100.00;100930.81;6120704;23;20421;-85
2022/09/17 03:20:55;;;;;;;18.27;2.27;;;;;;;12.47;100.00;100892.53;6096609;23;20402;-81
2022/09/17 03:23:20;;;;;;;9.33;2.03;;;;;;;12.34;100.00;100893.41;6094557;23;20193;-80
2022/09/17 03:25:48;;;;;;;10.83;2.00;;;;;;;12.53;100.00;100934.78;6121326;23;20150;-82
2022/09/17 03:28:14;;;;;;;7.60;2.10;;;;;;;11.87;100.00;100836.97;6121289;23;20259;-77
2022/09/17 03:30:39;;;;;;;6.43;1.87;;;;;;;12.02;100.00;100835.94;6121249;23;21025;-79
2022/09/17 03:33:04;;;;;;;14.87;3.43;;;;;;;12.49;100.00;100920.88;6096828;23;20169;-80
2022/09/17 03:35:30;;;;;;;16.33;1.90;;;;;;;12.51;100.00;100900.00;6122724;23;20183;-81
2022/09/17 03:37:55;;;;;;;10.13;2.47;;;;;;;12.54;100.00;100914.88;6094973;23;20601;-86
2022/09/17 03:40:20;;;;;;;6.60;1.90;;;;;;;11.77;100.00;100786.31;6094931;23;20238;-81
2022/09/17 03:42:46;;;;;;;7.83;1.90;;;;;;;12.41;100.00;100888.81;6121132;23;20237;-90
2022/09/17 03:45:11;;;;;;;6.87;1.70;;;;;;;12.40;100.00;100896.06;6094350;23;20224;-82
2022/09/17 03:47:37;;;;;;;7.63;2.67;;;;;;;12.16;100.00;100837.56;6095241;23;20185;-82
2022/09/17 03:50:04;;;;;;;7.80;2.60;;;;;;;12.26;100.00;100866.72;6095621;23;20162;-82
2022/09/17 03:52:29;;;;;;;13.03;3.10;;;;;;;12.58;100.00;100929.56;6120862;23;20165;-81
2022/09/17 03:54:54;;;;;;;5.60;1.83;;;;;;;12.42;100.00;100901.25;6121630;23;20476;-78
2022/09/17 03:57:21;;;;;;;6.60;2.13;;;;;;;12.51;100.00;100902.69;6119508;23;20154;-85
2022/09/17 03:59:47;;;;;;;5.93;2.07;;;;;;;12.37;100.00;100885.72;6095110;23;20205;-84
2022/09/17 04:02:12;;;;;;;12.17;2.30;;;;;;;11.99;100.00;100837.16;6095533;23;20382;-79
2022/09/17 04:04:37;;;;;;;8.93;3.00;;;;;;;12.69;100.00;100928.94;6117561;23;20149;-77
2022/09/17 04:07:03;;;;;;;11.23;2.60;;;;;;;12.01;100.00;100843.19;6121523;23;20150;-78
2022/09/17 04:09:29;;;;;;;4.63;1.70;;;;;;;12.51;100.00;100920.69;6094412;23;20555;-90
2022/09/17 04:11:55;;;;;;;7.07;1.90;;;;;;;12.37;100.00;100896.50;6094604;23;20390;-81
2022/09/17 04:14:20;;;;;;;8.57;2.23;;;;;;;12.21;100.00;100905.00;6120154;23;20374;-79
2022/09/17 04:16:46;;;;;;;12.10;2.43;;;;;;;12.56;100.00;100928.97;6118919;23;20581;-78
2022/09/17 04:19:11;;;;;;;7.37;2.17;;;;;;;11.94;100.00;100805.53;6120628;23;20178;-80
2022/09/17 04:21:36;;;;;;;10.37;2.13;;;;;;;12.61;100.00;100927.31;6094621;23;20162;-86
2022/09/17 04:24:02;;;;;;;8.70;2.00;;;;;;;12.64;100.00;100943.03;6093772;23;20164;-77
2022/09/17 04:26:27;;;;;;;7.17;1.90;;;;;;;12.72;100.00;100933.88;6121424;23;20153;-78
2022/09/17 04:28:53;;;;;;;8.23;1.70;;;;;;;12.69;100.00;100955.00;6121558;23;20166;-82
2022/09/17 04:31:18;;;;;;;9.50;2.30;;;;;;;12.46;100.00;100899.78;6120743;23;20208;-77
2022/09/17 04:33:43;;;;;;;8.77;2.90;;;;;;;12.12;100.00;100858.69;6120306;23;20160;-80
2022/09/17 04:36:09;;;;;;;8.60;1.73;;;;;;;10.70;100.00;100674.50;6094124;23;20499;-78
2022/09/17 04:38:34;;;;;;;4.93;1.63;;;;;;;12.59;100.00;100950.91;6120203;23;20190;-82
2022/09/17 04:41:00;;;;;;;10.03;2.10;;;;;;;11.56;100.00;100791.06;6121044;23;20491;-78
2022/09/17 04:43:25;;;;;;;7.27;1.90;;;;;;;12.39;100.00;100924.00;6119979;23;20153;-77
2022/09/17 04:45:51;;;;;;;9.00;2.13;;;;;;;12.17;100.00;100898.38;6118890;23;20589;-76
2022/09/17 04:48:16;;;;;;;6.67;1.87;;;;;;;12.26;100.00;100980.50;6121602;23;20174;-77
2022/09/17 04:50:42;;;;;;;5.17;1.93;;;;;;;12.22;100.00;100936.22;6095205;23;20166;-80
2022/09/17 04:53:08;;;;;;;11.03;2.70;;;;;;;11.92;100.00;100892.81;6120660;23;20493;-76
2022/09/17 04:55:33;;;;;;;8.00;2.33;;;;;;;12.34;100.00;100926.50;6120661;23;20154;-77
2022/09/17 04:57:58;;;;;;;8.80;2.53;;;;;;;12.49;100.00;100952.34;6095657;23;20189;-80
2022/09/17 05:00:24;;;;;;;7.57;2.17;;;;;;;11.75;100.00;100806.34;6121522;23;20382;-78
2022/09/17 05:02:52;;;;;;;8.73;2.27;;;;;;;12.60;100.00;100952.53;6096186;23;20901;-80
2022/09/17 05:05:18;;;;;;;11.20;2.57;;;;;;;12.50;100.00;100951.31;6121037;23;20153;-78
2022/09/17 05:07:44;;;;;;;11.97;2.57;;;;;;;11.93;100.00;100870.25;6095858;23;20405;-76
2022/09/17 05:10:11;;;;;;;10.87;2.57;;;;;;;11.97;100.00;100860.75;6095781;23;20393;-79
2022/09/17 05:12:36;;;;;;;9.43;2.30;;;;;;;12.46;100.00;100944.69;6120967;23;20168;-85
2022/09/17 05:15:03;;;;;;;7.20;1.90;;;;;;;12.59;100.00;100950.91;6121786;23;20382;-79
2022/09/17 05:17:28;;;;;;;10.03;2.57;;;;;;;11.86;100.00;100840.72;6121294;23;20226;-80
2022/09/17 05:19:53;;;;;;;7.47;2.30;;;;;;;12.18;100.00;100891.97;6095119;23;20448;-81
2022/09/17 05:22:19;;;;;;;11.40;2.83;;;;;;;12.41;100.00;100965.00;6119682;23;20154;-83
2022/09/17 05:24:45;;;;;;;8.93;2.50;;;;;;;12.17;100.00;100907.25;6094631;23;20169;-80
2022/09/17 05:27:11;;;;;;;13.43;2.60;;;;;;;11.73;100.00;100846.03;6120004;23;20465;-77
2022/09/17 05:29:36;;;;;;;8.33;2.50;;;;;;;11.61;100.00;100820.81;6120951;23;20248;-76
2022/09/17 05:32:03;;;;;;;14.70;2.10;;;;;;;11.78;100.00;100859.69;6118418;23;20200;-84
2022/09/17 05:34:28;;;;;;;9.93;2.50;;;;;;;12.44;100.00;100964.56;6121121;23;20755;-80
2022/09/17 05:36:54;;;;;;;7.47;2.50;;;;;;;11.67;100.00;100830.75;6094341;23;20455;-81
2022/09/17 05:39:21;;;;;;;9.30;2.50;;;;;;;12.39;100.00;100934.78;6120341;23;20267;-77
2022/09/17 05:41:47;;;;;;;10.20;2.43;;;;;;;12.55;100.00;100948.81;6094003;23;20219;-78
2022/09/17 05:44:12;;;;;;;12.60;2.33;;;;;;;11.82;100.00;100854.72;6119834;23;20378;-81
2022/09/17 05:46:38;;;;;;;11.73;2.77;;;;;;;12.36;100.00;100939.75;6120391;23;20197;-80
2022/09/17 05:49:03;;;;;;;11.00;2.90;;;;;;;12.27;100.00;100922.19;6120249;23;20656;-80
2022/09/17 05:51:29;;;;;;;7.87;2.57;;;;;;;12.39;100.00;100929.41;6120036;23;20161;-79
2022/09/17 05:53:55;;;;;;;17.90;2.60;;;;;;;12.64;100.00;100966.41;6120326;23;20158;-79
2022/09/17 05:56:20;;;;;;;9.53;2.17;;;;;;;11.85;100.00;100847.09;6117077;23;20821;-81
2022/09/17 05:58:46;;;;;;;11.07;2.60;;;;;;;12.22;100.00;100893.19;6119810;23;20189;-82
2022/09/17 06:01:15;;;;;;;9.73;2.33;;;;;;;11.34;100.00;100772.47;6095471;23;20401;-75
2022/09/17 06:03:41;;;;;;;5.83;2.00;;;;;;;10.52;100.00;100653.63;6146280;23;20160;-75
2022/09/17 06:06:06;;;;;;;8.47;2.10;;;;;;;9.96;100.00;100552.81;6150211;23;20380;-74
2022/09/17 06:08:34;;;;;;;11.80;2.63;;;;;;;11.52;100.00;100828.25;6150054;23;20720;-76
2022/09/17 06:11:04;;;;;;;8.53;1.70;;;;;;;12.38;100.00;100959.19;6149401;23;20196;-73
2022/09/17 06:13:29;;;;;;;6.27;2.00;;;;;;;10.50;100.00;100653.00;6149293;23;20376;-73
2022/09/17 06:15:55;;;;;;;10.83;2.67;;;;;;;10.56;100.00;100646.84;6148950;23;20771;-74
2022/09/17 06:18:20;;;;;;;5.90;1.53;;;;;;;10.43;100.00;100613.78;6148495;23;20175;-75
2022/09/17 06:20:58;;;;;;;12.90;2.80;;;;;;;10.90;100.00;100668.34;6150718;23;20216;-72
2022/09/17 06:23:25;;;;;;;7.70;1.90;;;;;;;12.76;100.00;101015.88;6149957;23;20618;-72
2022/09/17 06:25:53;;;;;;;10.00;1.90;;;;;;;10.18;100.00;100623.19;6151850;23;20383;-76
2022/09/17 06:28:18;;;;;;;10.17;2.40;;;;;;;10.46;100.00;100598.13;6125859;23;20381;-74
2022/09/17 06:30:44;;;;;;;5.07;1.53;;;;;;;11.29;100.00;100777.63;6150432;23;20661;-75
2022/09/17 06:33:09;;;;;;;9.03;2.80;;;;;;;12.80;100.00;100992.88;6150628;23;20232;-75
2022/09/17 06:35:35;;;;;;;7.23;1.63;;;;;;;12.90;100.00;101030.13;6151948;23;20158;-77
2022/09/17 06:38:03;;;;;;;5.43;1.70;;;;;;;10.81;100.00;100654.28;6147790;23;20173;-75
2022/09/17 06:40:29;;;;;;;7.80;2.47;;;;;;;10.97;100.00;100647.72;6149798;23;20153;-79
2022/09/17 06:42:58;;;;;;;6.47;1.50;;;;;;;10.75;100.00;100577.31;6149217;23;20400;-74
2022/09/17 06:45:27;;;;;;;7.40;1.60;;;;;;;11.54;100.00;100733.00;6150308;23;20171;-76
2022/09/17 06:47:52;;;;;;;6.10;1.90;;;;;;;10.98;100.00;100598.38;6148652;23;20381;-76
2022/09/17 06:50:18;;;;;;;8.73;2.23;;;;;;;10.77;100.00;100562.66;6148874;23;20452;-77
2022/09/17 06:52:48;;;;;;;6.50;1.90;;;;;;;11.82;100.00;100744.53;6145409;23;20536;-81
2022/09/17 06:55:14;;;;;;;15.83;1.70;;;;;;;10.94;100.00;100578.34;6149987;23;20149;-81
2022/09/17 06:57:40;;;;;;;7.90;2.20;;;;;;;11.14;100.00;100672.25;6125282;23;20460;-82
2022/09/17 07:00:06;;;;;;;10.17;2.10;;;;;;;11.09;100.00;100646.88;6150823;23;20424;-79
2022/09/17 07:02:32;;;;;;;16.27;3.93;;;;;;;11.28;100.00;100706.97;6123554;23;20489;-77
2022/09/17 07:04:57;;;;;;;8.73;2.37;;;;;;;10.70;100.00;100623.53;6148298;23;20463;-80
2022/09/17 07:07:22;;;;;;;7.70;2.20;;;;;;;11.66;100.00;100780.75;6151277;23;20256;-83
2022/09/17 07:09:48;;;;;;;7.60;1.90;;;;;;;11.75;100.00;100777.63;6150253;23;20161;-74
2022/09/17 07:12:13;;;;;;;9.50;2.23;;;;;;;10.84;100.00;100587.63;6149977;23;20228;-75
2022/09/17 07:14:39;;;;;;;9.43;2.03;;;;;;;11.83;100.00;100762.31;6148466;23;20564;-75
2022/09/17 07:17:04;;;;;;;8.70;1.80;;;;;;;10.79;100.00;100544.50;6149214;23;20608;-75
2022/09/17 07:19:29;;;;;;;12.30;2.47;;;;;;;11.53;100.00;100701.78;6122554;23;20662;-77
2022/09/17 07:21:55;;;;;;;12.63;2.33;;;;;;;12.14;100.00;100815.44;6146718;23;20184;-74
2022/09/17 07:24:20;;;;;;;7.70;1.93;;;;;;;11.00;100.00;100559.56;6149231;23;20153;-74
2022/09/17 07:26:46;;;;;;;7.80;2.10;;;;;;;11.83;100.00;100730.06;6150481;23;20233;-74
2022/09/17 07:29:11;;;;;;;9.70;2.67;;;;;;;11.25;100.00;100629.53;6120817;23;20158;-75
2022/09/17 07:31:36;;;;;;;12.80;2.53;;;;;;;13.27;100.00;100937.03;6145577;23;20173;-75
2022/09/17 07:34:02;;;;;;;6.50;2.33;;;;;;;13.55;100.00;100982.50;6119891;23;20165;-74
2022/09/17 07:36:27;;;;;;;11.90;2.53;;;;;;;12.15;100.00;100787.50;6144021;23;20153;-79
2022/09/17 07:38:53;;;;;;;43.80;5.30;;;;;;;11.42;100.00;100710.47;6147342;23;20169;-84
2022/09/17 07:41:18;;;;;;;9.10;1.70;;;;;;;12.23;100.00;100799.91;6135834;23;20244;-78
2022/09/17 07:44:06;;;;;;;4.70;1.50;;;;;;;13.27;100.00;100969.38;6146719;23;20157;-75
2022/09/17 07:46:31;;;;;;;8.27;2.20;;;;;;;10.77;100.00;100604.78;6141151;23;20138;-77
2022/09/17 07:48:57;;;;;;;9.10;1.87;;;;;;;11.89;100.00;100788.38;6143620;23;20386;-81
2022/09/17 07:51:24;;;;;;;8.07;2.07;;;;;;;11.17;100.00;100615.50;6144614;23;20177;-77
2022/09/17 07:53:51;;;;;;;8.03;2.40;;;;;;;10.93;100.00;100587.41;6145011;23;20153;-76
2022/09/17 07:56:16;;;;;;;8.53;2.20;;;;;;;12.17;100.00;100799.69;6145043;23;20377;-76
2022/09/17 07:58:42;;;;;;;6.80;2.03;;;;;;;12.12;100.00;100742.22;6145562;23;20421;-77
2022/09/17 08:01:10;;;;;;;10.07;2.27;;;;;;;11.28;100.00;100602.28;6147776;23;20188;-77
2022/09/17 08:03:37;;;;;;;8.83;2.03;;;;;;;11.97;100.00;100664.50;6148356;23;20260;-75
2022/09/17 08:06:08;;;;;;;11.20;2.03;;;;;;;12.15;100.00;100741.78;6149258;23;20385;-78
2022/09/17 08:08:35;;;;;;;13.00;2.27;;;;;;;13.94;100.00;101004.94;6147348;23;20711;-78
2022/09/17 08:11:06;;;;;;;5.57;2.17;;;;;;;11.62;100.00;100629.03;6121099;23;20432;-74
2022/09/17 08:13:32;;;;;;;11.67;2.47;;;;;;;11.98;100.00;100628.56;6147475;23;20435;-75
2022/09/17 08:16:06;;;;;;;11.80;2.20;;;;;;;13.21;100.00;100808.59;6147661;23;20503;-81
2022/09/17 08:18:32;;;;;;;9.60;2.80;;;;;;;11.98;100.00;100609.75;6146702;23;20227;-79
2022/09/17 08:20:59;;;;;;;9.67;3.13;;;;;;;11.89;100.00;100584.13;6145875;23;20435;-77
2022/09/17 08:23:26;;;;;;;13.00;2.50;;;;;;;12.12;100.00;100573.69;6146899;23;20377;-74
2022/09/17 08:25:57;;;;;;;14.10;4.03;;;;;;;13.60;100.00;100808.56;6147677;23;20373;-76
2022/09/17 08:28:24;;;;;;;15.30;2.53;;;;;;;13.72;100.00;100847.25;6146367;23;20358;-76
2022/09/17 08:30:50;;;;;;;12.13;3.00;;;;;;;13.62;100.00;100866.59;6148285;23;20436;-86
2022/09/17 08:33:16;;;;;;;8.87;2.60;;;;;;;12.28;100.00;100614.53;6149767;23;20373;-80
2022/09/17 08:35:42;;;;;;;12.90;3.27;;;;;;;12.41;100.00;100685.25;6123980;23;20472;-73
2022/09/17 08:38:08;;;;;;;15.07;2.43;;;;;;;12.77;100.00;100764.53;6148875;23;20420;-81
2022/09/17 08:40:44;;;;;;;7.90;2.40;;;;;;;12.23;100.00;100711.97;6147675;23;20391;-77
2022/09/17 08:43:17;;;;;;;7.13;2.20;;;;;;;12.35;100.00;100696.84;6141850;23;20216;-81
2022/09/17 08:45:42;;;;;;;15.73;2.23;;;;;;;12.01;100.00;100641.56;6143773;23;20605;-88
2022/09/17 08:48:12;;;;;;;9.17;2.20;;;;;;;12.12;100.00;100640.06;6148339;23;20855;-90
2022/09/17 08:50:40;;;;;;;8.00;2.30;;;;;;;12.43;100.00;100642.78;6146985;23;20150;-80
2022/09/17 08:53:12;;;;;;;7.87;1.80;;;;;;;14.56;100.00;100951.13;6142955;23;20388;-86
2022/09/17 08:55:59;;;;;;;17.70;3.00;;;;;;;14.58;100.00;100949.03;6147150;23;20862;-83
2022/09/17 08:59:10;;;;;;;6.47;2.30;;;;;;;12.31;100.00;100563.84;6147044;23;20983;-78
2022/09/17 09:01:58;;;;;;;10.07;2.77;;;;;;;12.91;100.00;100748.31;6121271;23;20496;-75
2022/09/17 09:04:43;;;;;;;9.30;2.60;;;;;;;13.18;100.00;100708.56;6117578;23;20389;-76
2022/09/17 09:07:20;;;;;;;8.30;2.20;;;;;;;13.32;100.00;100750.53;6142986;23;20396;-75
2022/09/17 09:09:52;;;;;;;12.97;2.30;;;;;;;13.42;100.00;100688.06;6144088;23;20365;-84
2022/09/17 09:12:32;;;;;;;8.83;2.20;;;;;;;13.56;100.00;100746.19;6146060;23;20396;-85
2022/09/17 09:15:06;;;;;;;8.47;1.90;;;;;;;12.82;100.00;100591.63;6144488;23;20369;-78
2022/09/17 09:17:41;;;;;;;8.43;2.30;;;;;;;13.10;100.00;100691.63;6147322;23;20365;-76
2022/09/17 09:20:17;;;;;;;9.77;2.60;;;;;;;12.32;100.00;100594.25;6149453;23;20408;-77
2022/09/17 09:22:49;;;;;;;11.73;2.13;;;;;;;11.93;100.00;100577.28;6150402;23;20466;-81
2022/09/17 09:25:22;;;;;;;12.23;3.17;;;;;;;12.55;100.00;100737.09;6151463;23;20480;-83
2022/09/17 09:28:33;;;;;;;15.37;2.67;;;;;;;12.75;100.00;100763.91;6150977;23;20393;-83
2022/09/17 09:31:20;;;;;;;7.13;1.80;;;;;;;13.99;100.00;100985.38;6095626;23;20413;-77
2022/09/17 09:33:48;;;;;;;7.30;1.80;;;;;;;12.62;100.00;100829.38;6150651;23;20364;-77
2022/09/17 09:36:15;;;;;;;8.33;2.23;;;;;;;11.07;100.00;100595.25;6150512;23;20377;-77
2022/09/17 09:39:19;;;;;;;4.67;1.50;;;;;;;12.26;100.00;100776.09;6150904;23;20423;-76
2022/09/17 09:41:53;;;;;;;5.30;2.00;;;;;;;11.61;100.00;100585.25;6149222;23;20415;-80
2022/09/17 09:44:18;;;;;;;5.67;2.00;;;;;;;12.80;100.00;100774.03;6151040;23;20364;-77
2022/09/17 09:47:09;;;;;;;9.60;2.17;;;;;;;12.98;100.00;100757.97;6150815;23;20722;-78
2022/09/17 09:49:59;;;;;;;10.37;2.10;;;;;;;14.98;100.00;100966.69;6150142;23;20401;-87
2022/09/17 09:52:58;;;;;;;12.87;2.37;;;;;;;15.13;100.00;100965.28;6150517;23;20880;-76
2022/09/17 09:55:49;;;;;;;5.43;1.70;;;;;;;15.23;100.00;100956.63;6128327;23;20475;-77
2022/09/17 09:58:38;;;;;;;15.07;2.77;;;;;;;13.68;100.00;100827.16;6153097;23;20409;-85
2022/09/17 10:01:21;;;;;;;12.13;3.03;;;;;;;13.04;100.00;100807.44;6111328;23;20753;-74
2022/09/17 10:03:50;;;;;;;10.97;2.10;;;;;;;12.46;100.00;100764.47;6150692;23;20395;-76
2022/09/17 10:06:18;;;;;;;12.17;3.53;;;;;;;12.06;100.00;100719.69;6152060;23;20388;-86
2022/09/17 10:08:49;;;;;;;14.87;2.90;;;;;;;14.06;100.00;100979.94;6152441;23;20414;-76
2022/09/17 10:11:24;;;;;;;10.07;2.70;;;;;;;13.08;100.00;100844.50;6126663;23;20417;-82
2022/09/17 10:13:50;;;;;;;8.90;2.27;;;;;;;12.22;100.00;100680.75;6152159;23;20380;-75
2022/09/17 10:16:18;;;;;;;18.93;2.90;;;;;;;14.45;100.00;100974.22;6152954;23;20376;-86
2022/09/17 10:18:44;;;;;;;11.40;2.60;;;;;;;13.40;100.00;100793.38;6150383;23;20173;-79
2022/09/17 10:21:33;;;;;;;11.73;1.97;;;;;;;13.13;100.00;100730.75;6126225;23;20474;-78
2022/09/17 10:24:01;;;;;;;10.40;2.70;;;;;;;12.73;100.00;100654.81;6152243;23;20392;-77
2022/09/17 10:26:31;;;;;;;10.13;2.10;;;;;;;12.85;100.00;100640.47;6126697;23;20389;-81
2022/09/17 10:29:02;;;;;;;13.90;2.10;;;;;;;15.05;100.00;101016.91;6151733;23;20400;-81
2022/09/17 10:31:51;;;;;;;11.13;2.50;;;;;;;13.45;100.00;100719.97;6124378;23;20409;-79
2022/09/17 10:34:26;;;;;;;7.50;2.43;;;;;;;13.53;100.00;100707.03;6124796;23;20376;-74
2022/09/17 10:36:54;;;;;;;5.20;1.60;;;;;;;13.43;100.00;100649.31;6150763;23;20379;-85
2022/09/17 10:39:26;;;;;;;6.50;1.60;;;;;;;15.54;100.00;100960.19;6149253;23;20420;-73
2022/09/17 10:41:57;;;;;;;10.73;2.50;;;;;;;14.55;100.00;100855.00;6148914;23;20405;-77
2022/09/17 10:44:25;;;;;;;8.30;1.70;;;;;;;14.73;100.00;100877.66;6148628;23;20380;-84
2022/09/17 10:46:52;;;;;;;10.37;1.93;;;;;;;14.96;100.00;100898.59;6123048;23;20381;-88
2022/09/17 10:49:32;;;;;;;8.67;1.93;;;;;;;15.71;100.00;100960.41;6146816;23;20380;-80
2022/09/17 10:52:07;;;;;;;8.13;2.30;;;;;;;15.34;100.00;100896.41;6147536;23;20404;-79
2022/09/17 10:55:07;;;;;;;8.80;1.70;;;;;;;15.44;100.00;100971.53;6142420;23;20385;-77
2022/09/17 10:58:00;;;;;;;8.97;2.20;;;;;;;15.33;100.00;100973.13;6113041;23;20875;-79
2022/09/17 11:00:32;;;;;;;14.10;2.03;;;;;;;15.15;100.00;100892.09;6143291;23;20373;-75
2022/09/17 11:03:27;;;;;;;12.37;1.83;;;;;;;15.89;100.00;100973.88;6141768;23;20447;-75
2022/09/17 11:06:17;;;;;;;9.77;1.60;;;;;;;15.81;100.00;100956.06;6104403;23;20416;-77
2022/09/17 11:08:57;;;;;;;8.80;2.43;;;;;;;15.76;100.00;100968.63;6150049;23;20369;-72
2022/09/17 11:11:23;;;;;;;7.07;2.00;;;;;;;16.01;100.00;100957.66;6149534;23;20403;-77
2022/09/17 11:13:59;;;;;;;11.23;2.07;;;;;;;15.28;100.00;100866.78;6146914;23;20467;-76
2022/09/17 11:16:40;;;;;;;6.40;1.73;;;;;;;15.30;100.00;100852.00;6117633;23;20252;-74
2022/09/17 11:19:17;;;;;;;11.10;2.83;;;;;;;16.09;100.00;100972.75;6142340;23;20443;-76
2022/09/17 11:21:49;;;;;;;12.70;2.80;;;;;;;14.54;100.00;100890.31;6143446;23;20924;-75
2022/09/17 11:24:49;;;;;;;8.43;2.30;;;;;;;14.74;100.00;100971.09;6147124;23;20380;-75
2022/09/17 11:27:29;;;;;;;8.47;2.27;;;;;;;14.74;100.00;100988.13;6147177;23;20396;-76
2022/09/17 11:30:15;;;;;;;5.83;1.93;;;;;;;14.83;100.00;100991.34;6146709;23;20966;-76
2022/09/17 11:33:06;;;;;;;7.80;1.90;;;;;;;15.19;100.00;100978.91;6139227;23;20861;-76